Time;durP1;ratioP1;P1;durP2;ratioP2;P2;SDS_P1;SDS_P2;PMS_P1;PMS_P2;Temp;Humidity;BMP_temperature;BMP_pressure;BME280_temperature;BME280_humidity;BME280_pressure;Samples;Min_cycle;Max_cycle;Signal;HPM_P1;HPM_P2
2022/06/18 00:00:52;;;;;;;7.85;5.55;;;;;;;13.29;66.53;100837.20;1733080;82;25717;-67
2022/06/18 00:03:19;;;;;;;6.47;4.83;;;;;;;13.25;66.43;100838.38;1704620;84;25744;-67
2022/06/18 00:05:49;;;;;;;7.35;5.20;;;;;;;13.22;66.59;100841.16;1730235;82;25741;-65
2022/06/18 00:08:22;;;;;;;9.75;5.03;;;;;;;13.20;66.63;100837.95;1707425;84;27355;-66
2022/06/18 00:10:53;;;;;;;7.87;5.08;;;;;;;13.18;66.71;100838.83;1708183;84;25628;-66
2022/06/18 00:13:40;;;;;;;5.87;5.17;;;;;;;13.15;67.12;100835.94;1708624;84;25769;-67
2022/06/18 00:16:11;;;;;;;7.72;5.25;;;;;;;13.12;67.12;100841.43;1703803;84;25744;-65
2022/06/18 00:18:38;;;;;;;6.80;5.62;;;;;;;13.10;67.12;100840.16;1730077;82;25554;-67
2022/06/18 00:21:07;;;;;;;7.70;5.45;;;;;;;13.07;67.08;100842.92;1720375;82;27159;-67
2022/06/18 00:23:34;;;;;;;6.55;5.78;;;;;;;13.03;67.04;100840.03;1727587;82;25759;-67
2022/06/18 00:26:00;;;;;;;7.25;5.53;;;;;;;12.99;67.04;100835.00;1735933;82;25450;-67
2022/06/18 00:28:31;;;;;;;6.75;5.65;;;;;;;12.95;67.35;100831.28;1730450;82;25692;-67
2022/06/18 00:30:59;;;;;;;7.53;5.45;;;;;;;12.92;67.70;100834.61;1724757;82;25466;-65
2022/06/18 00:33:26;;;;;;;10.00;5.67;;;;;;;12.88;67.91;100840.44;1724078;82;27914;-67
2022/06/18 00:35:57;;;;;;;6.37;5.53;;;;;;;12.85;67.93;100832.91;1708884;84;25725;-67
2022/06/18 00:38:34;;;;;;;7.42;5.95;;;;;;;12.82;68.50;100835.70;1758729;80;25464;-67
2022/06/18 00:41:01;;;;;;;9.85;6.08;;;;;;;12.79;68.44;100832.81;1733414;81;26308;-66
2022/06/18 00:43:48;;;;;;;8.48;5.40;;;;;;;12.76;68.65;100830.71;1734552;82;25431;-66
2022/06/18 00:46:35;;;;;;;7.80;5.85;;;;;;;12.73;68.56;100830.76;1733299;81;27397;-66
2022/06/18 00:49:18;;;;;;;10.45;6.15;;;;;;;12.67;68.51;100826.02;1683119;84;25776;-66
2022/06/18 00:51:49;;;;;;;8.65;5.85;;;;;;;12.65;68.65;100828.25;1683156;84;25821;-67
2022/06/18 00:54:27;;;;;;;10.93;5.45;;;;;;;12.63;68.47;100828.30;1682102;85;25689;-67
2022/06/18 00:57:10;;;;;;;9.05;5.90;;;;;;;12.61;68.34;100823.18;1677691;85;26004;-65
2022/06/18 00:59:57;;;;;;;7.10;5.58;;;;;;;12.58;68.93;100825.18;1683176;85;28049;-67
2022/06/18 01:02:28;;;;;;;7.12;5.65;;;;;;;12.55;68.97;100828.50;1657074;86;25783;-65
2022/06/18 01:04:54;;;;;;;8.38;5.90;;;;;;;12.51;68.65;100828.33;1656342;86;25832;-65
2022/06/18 01:07:35;;;;;;;8.70;5.80;;;;;;;12.48;68.74;100834.36;1656374;86;26279;-65
2022/06/18 01:10:06;;;;;;;8.63;6.10;;;;;;;12.45;68.95;100833.62;1656433;86;25523;-67
2022/06/18 01:12:32;;;;;;;10.32;6.65;;;;;;;12.43;68.88;100831.77;1656416;86;28126;-65
2022/06/18 01:15:04;;;;;;;9.20;6.47;;;;;;;12.41;69.21;100832.64;1656321;86;25787;-66
2022/06/18 01:17:32;;;;;;;8.03;6.08;;;;;;;12.39;69.40;100835.40;1656204;86;25730;-66
2022/06/18 01:20:00;;;;;;;7.53;6.37;;;;;;;12.36;69.60;100834.13;1656314;86;26157;-65
2022/06/18 01:22:48;;;;;;;10.63;6.53;;;;;;;12.33;69.73;100827.38;1656478;86;25617;-66
2022/06/18 01:25:15;;;;;;;9.28;6.10;;;;;;;12.33;69.81;100826.02;1658700;86;28314;-65
2022/06/18 01:27:41;;;;;;;9.10;6.17;;;;;;;12.33;70.03;100827.95;1684926;83;25763;-65
2022/06/18 01:30:16;;;;;;;7.92;6.10;;;;;;;12.33;70.16;100822.52;1719421;83;25769;-65
2022/06/18 01:32:46;;;;;;;8.80;6.00;;;;;;;12.32;70.26;100817.63;1719411;83;25751;-66
2022/06/18 01:35:13;;;;;;;10.90;7.15;;;;;;;12.31;70.27;100813.34;1719451;83;25638;-66
2022/06/18 01:37:39;;;;;;;10.65;6.85;;;;;;;12.31;70.46;100805.20;1719643;83;28028;-66
2022/06/18 01:40:10;;;;;;;7.65;6.15;;;;;;;12.29;70.31;100812.84;1760599;80;25366;-66
2022/06/18 01:42:43;;;;;;;12.10;6.28;;;;;;;12.27;70.08;100810.97;1762618;80;25620;-66
2022/06/18 01:45:26;;;;;;;8.58;6.53;;;;;;;12.24;70.46;100807.54;1718816;82;25688;-66
2022/06/18 01:48:16;;;;;;;7.67;6.05;;;;;;;12.21;70.40;100805.97;1774173;80;25744;-65
2022/06/18 01:50:48;;;;;;;7.97;6.58;;;;;;;12.20;70.50;100806.53;1706593;84;28032;-66
2022/06/18 01:53:29;;;;;;;9.93;6.50;;;;;;;12.16;70.20;100808.27;1758341;81;25714;-65
2022/06/18 01:56:00;;;;;;;7.22;6.08;;;;;;;12.13;70.45;100802.89;1721527;82;25727;-65
2022/06/18 01:58:43;;;;;;;11.18;6.33;;;;;;;12.13;70.94;100800.74;1706944;82;26323;-67
2022/06/18 02:01:15;;;;;;;10.75;7.25;;;;;;;12.11;70.92;100798.33;1769680;80;25739;-67
2022/06/18 02:03:41;;;;;;;8.88;6.25;;;;;;;12.08;70.82;100797.59;1767475;80;28124;-66
2022/06/18 02:06:08;;;;;;;8.90;6.55;;;;;;;12.05;70.59;100800.11;1706550;83;33038;-66
2022/06/18 02:08:35;;;;;;;9.03;6.78;;;;;;;12.01;70.94;100794.50;1769677;80;25385;-66
2022/06/18 02:11:06;;;;;;;8.70;6.70;;;;;;;11.97;70.85;100798.95;1706777;84;25714;-66
2022/06/18 02:13:46;;;;;;;8.83;7.03;;;;;;;11.94;70.90;100795.48;1756862;81;25592;-65
2022/06/18 02:16:19;;;;;;;9.10;7.33;;;;;;;11.91;71.05;100800.16;1758616;81;27571;-66
2022/06/18 02:18:48;;;;;;;9.15;7.33;;;;;;;11.87;71.38;100796.44;1706476;84;25655;-66
2022/06/18 02:21:17;;;;;;;7.92;6.83;;;;;;;11.84;71.54;100786.98;1758584;81;25623;-65
2022/06/18 02:23:43;;;;;;;12.47;7.60;;;;;;;11.83;71.68;100784.02;1727315;82;25699;-66
2022/06/18 02:26:09;;;;;;;10.98;7.37;;;;;;;11.83;71.84;100788.09;1758484;81;25690;-65
2022/06/18 02:28:40;;;;;;;10.15;7.30;;;;;;;11.83;71.82;100792.15;1706433;84;27401;-66
2022/06/18 02:31:07;;;;;;;10.08;7.03;;;;;;;11.83;71.86;100792.71;1758347;81;25661;-65
2022/06/18 02:33:45;;;;;;;9.90;7.40;;;;;;;11.82;72.14;100783.00;1706561;84;25729;-66
2022/06/18 02:36:25;;;;;;;12.82;7.55;;;;;;;11.82;72.09;100785.70;1758597;81;25814;-66
2022/06/18 02:39:00;;;;;;;;;;;;;;;11.82;72.20;100785.70;1706218;82;25625;-66
2022/06/18 02:41:26;;;;;;;12.63;7.55;;;;;;;11.82;72.32;100783.00;1699532;83;27398;-66
2022/06/18 02:43:53;;;;;;;10.28;7.53;;;;;;;11.81;72.12;100780.81;1726283;83;25415;-66
2022/06/18 02:46:20;;;;;;;12.90;7.90;;;;;;;11.81;72.20;100778.11;1699993;83;25725;-66
2022/06/18 02:48:46;;;;;;;10.72;7.95;;;;;;;11.82;72.27;100772.16;1737585;82;25771;-66
2022/06/18 02:51:14;;;;;;;9.75;8.10;;;;;;;11.83;72.22;100768.31;1726377;83;25761;-66
2022/06/18 02:53:41;;;;;;;11.43;7.78;;;;;;;11.82;72.26;100767.52;1726261;83;28117;-65
2022/06/18 02:56:11;;;;;;;10.95;8.23;;;;;;;11.84;72.25;100768.58;1742156;82;25680;-66
2022/06/18 02:58:40;;;;;;;;;;;;;;;11.86;72.24;100766.36;1728893;83;25410;-66
2022/06/18 03:01:14;;;;;;;12.13;8.68;;;;;;;11.87;72.69;100767.97;1719172;83;26426;-64
2022/06/18 03:03:47;;;;;;;11.80;8.95;;;;;;;11.88;72.60;100767.64;1687557;84;25686;-65
2022/06/18 03:06:15;;;;;;;10.88;8.20;;;;;;;11.89;72.72;100770.61;1706715;84;27326;-65
2022/06/18 03:08:45;;;;;;;13.68;8.93;;;;;;;11.91;72.97;100772.48;1686397;84;25590;-66
2022/06/18 03:13:59;;;;;;;13.15;8.88;;;;;;;11.93;72.96;100767.55;1706277;84;26459;-67
2022/06/18 03:16:22;;;;;;;11.95;8.65;;;;;;;11.96;73.11;100771.02;1705429;84;25774;-66
2022/06/18 03:18:52;;;;;;;9.03;8.13;;;;;;;12.00;73.11;100775.83;1706418;84;28136;-66
2022/06/18 03:21:47;;;;;;;13.30;8.75;;;;;;;12.02;73.49;100781.73;1706280;84;25639;-66
2022/06/18 03:24:15;;;;;;;17.42;9.70;;;;;;;12.07;73.66;100772.13;1706495;84;25591;-66
2022/06/18 03:26:42;;;;;;;13.03;9.98;;;;;;;12.10;73.98;100773.67;1706326;84;25705;-66
2022/06/18 03:29:09;;;;;;;13.58;10.32;;;;;;;12.15;74.02;100775.47;1706428;84;25707;-66
2022/06/18 03:31:35;;;;;;;16.27;10.88;;;;;;;12.20;74.32;100780.77;1706454;84;28228;-66
2022/06/18 03:34:02;;;;;;;11.95;9.60;;;;;;;12.25;74.40;100785.28;1706267;84;25656;-66
2022/06/18 03:36:29;;;;;;;18.40;10.85;;;;;;;12.31;74.79;100780.78;1706477;84;25604;-66
2022/06/18 03:38:55;;;;;;;15.08;10.10;;;;;;;12.39;74.88;100783.86;1738691;81;25608;-66
2022/06/18 03:41:22;;;;;;;20.43;10.88;;;;;;;12.46;75.18;100787.75;1755408;81;25694;-66
2022/06/18 03:43:49;;;;;;;15.23;11.35;;;;;;;12.55;75.21;100794.59;1767313;80;27900;-66
2022/06/18 03:46:17;;;;;;;13.60;10.70;;;;;;;12.64;76.20;100794.64;1758202;80;33108;-66
2022/06/18 03:49:03;;;;;;;13.63;11.17;;;;;;;12.74;76.08;100787.59;1765956;80;25716;-66
2022/06/18 03:51:30;;;;;;;15.32;10.03;;;;;;;12.83;76.56;100782.20;1761563;80;25655;-67
2022/06/18 03:53:59;;;;;;;13.85;10.10;;;;;;;12.95;76.48;100784.33;1776356;80;26106;-67
2022/06/18 03:56:30;;;;;;;15.40;10.72;;;;;;;13.05;76.46;100784.05;1758497;80;27354;-67
2022/06/18 03:58:57;;;;;;;12.05;9.75;;;;;;;13.14;76.83;100774.02;1755439;81;25419;-67
2022/06/18 04:01:31;;;;;;;12.23;10.93;;;;;;;13.24;76.75;100777.80;1770106;80;25700;-67
2022/06/18 04:03:58;;;;;;;15.28;10.25;;;;;;;13.34;76.88;100776.75;1755482;81;26287;-66
2022/06/18 04:06:25;;;;;;;14.90;10.38;;;;;;;13.46;77.19;100781.58;1771468;80;25698;-66
2022/06/18 04:08:52;;;;;;;14.50;10.15;;;;;;;13.55;77.03;100785.13;1768567;80;27282;-65
2022/06/18 04:11:18;;;;;;;14.90;10.20;;;;;;;13.67;77.24;100783.69;1755296;81;25449;-66
2022/06/18 04:13:44;;;;;;;12.00;10.20;;;;;;;13.77;77.05;100789.64;1775922;80;25690;-66
2022/06/18 04:16:11;;;;;;;14.33;9.80;;;;;;;13.91;77.35;100785.95;1764080;80;25613;-65
2022/06/18 04:18:37;;;;;;;10.82;9.10;;;;;;;14.01;77.02;100783.73;1759314;80;25690;-66
2022/06/18 04:21:04;;;;;;;12.03;9.10;;;;;;;14.13;76.95;100783.09;1765882;80;27306;-66
2022/06/18 04:23:31;;;;;;;12.05;9.90;;;;;;;14.26;76.66;100784.02;1767088;80;26031;-66
2022/06/18 04:25:57;;;;;;;12.95;9.03;;;;;;;14.37;76.29;100783.94;1737525;81;25673;-66
2022/06/18 04:28:23;;;;;;;12.18;9.30;;;;;;;14.48;76.16;100787.69;1755401;81;27832;-67
2022/06/18 04:30:49;;;;;;;12.05;8.03;;;;;;;14.59;75.91;100782.15;1734550;80;25497;-66
2022/06/18 04:33:15;;;;;;;11.30;8.88;;;;;;;14.70;75.79;100784.77;1763435;80;27568;-66
2022/06/18 04:35:41;;;;;;;12.15;8.88;;;;;;;14.83;75.85;100789.80;1755347;81;25542;-67
2022/06/18 04:38:10;;;;;;;10.35;8.23;;;;;;;14.96;75.65;100784.45;1755332;81;29601;-66
2022/06/18 04:40:37;;;;;;;13.40;8.03;;;;;;;15.10;75.63;100785.84;1727888;81;25636;-67
2022/06/18 04:43:07;;;;;;;9.73;8.40;;;;;;;15.24;75.40;100779.37;1755369;81;25484;-67
2022/06/18 04:45:35;;;;;;;8.75;7.47;;;;;;;15.38;74.89;100779.14;1755460;81;27998;-67
2022/06/18 04:48:02;;;;;;;11.50;7.15;;;;;;;15.52;74.26;100782.41;1774055;80;25721;-67
2022/06/18 04:50:39;;;;;;;10.78;7.72;;;;;;;15.65;73.87;100778.63;1753125;80;25717;-66
2022/06/18 04:53:08;;;;;;;10.85;6.85;;;;;;;15.81;73.47;100772.63;1752614;81;25636;-68
2022/06/18 04:55:35;;;;;;;8.40;6.60;;;;;;;15.97;73.31;100770.89;1755916;81;25745;-68
2022/06/18 04:58:02;;;;;;;7.83;6.10;;;;;;;16.14;72.86;100772.67;1755580;81;28102;-67
2022/06/18 05:00:28;;;;;;;8.35;6.90;;;;;;;16.32;72.35;100776.03;1755624;81;25580;-67
2022/06/18 05:02:54;;;;;;;8.38;5.95;;;;;;;16.50;71.98;100772.57;1755591;81;25571;-67
2022/06/18 05:05:27;;;;;;;12.03;6.20;;;;;;;16.69;71.78;100775.34;1755386;81;25694;-67
2022/06/18 05:07:54;;;;;;;9.25;5.65;;;;;;;16.86;70.87;100765.61;1755479;81;25790;-67
2022/06/18 05:10:21;;;;;;;7.72;5.55;;;;;;;17.05;70.56;100767.78;1755460;81;27376;-67
2022/06/18 05:12:47;;;;;;;6.60;5.65;;;;;;;17.21;69.62;100768.46;1755372;81;25567;-67
2022/06/18 05:15:13;;;;;;;7.83;5.55;;;;;;;17.39;69.43;100767.66;1769997;80;25458;-66
2022/06/18 05:17:43;;;;;;;6.37;5.42;;;;;;;17.54;69.14;100771.85;1755426;81;25919;-67
2022/06/18 05:20:23;;;;;;;9.25;5.50;;;;;;;17.69;68.79;100767.61;1770170;80;25790;-66
2022/06/18 05:22:49;;;;;;;;;;;;;;;17.89;68.46;100763.70;1758005;81;27375;-66
2022/06/18 05:25:18;;;;;;;5.25;4.75;;;;;;;18.06;66.99;100766.14;1755324;81;25429;-66
2022/06/18 05:27:46;;;;;;;8.68;4.28;;;;;;;18.23;67.05;100769.14;1755428;81;25701;-66
2022/06/18 05:30:18;;;;;;;7.17;4.47;;;;;;;18.39;66.04;100771.94;1756571;80;25785;-66
2022/06/18 05:32:44;;;;;;;4.12;3.75;;;;;;;18.55;65.67;100768.43;1767837;80;25702;-66
2022/06/18 05:35:12;;;;;;;5.00;4.35;;;;;;;18.69;65.24;100770.16;1770029;80;27323;-67
2022/06/18 05:37:39;;;;;;;6.25;4.67;;;;;;;18.82;64.17;100767.59;1773699;80;25460;-67
2022/06/18 05:40:08;;;;;;;5.28;4.20;;;;;;;18.98;63.83;100773.64;1765760;80;25592;-66
2022/06/18 05:42:35;;;;;;;7.87;4.65;;;;;;;19.12;63.28;100774.56;1716800;82;25621;-66
2022/06/18 05:45:01;;;;;;;9.13;4.37;;;;;;;19.22;62.92;100763.86;1768403;81;25474;-66
2022/06/18 05:47:33;;;;;;;5.47;3.98;;;;;;;19.37;62.89;100768.29;1752391;80;27265;-66
2022/06/18 05:50:01;;;;;;;6.10;4.05;;;;;;;19.48;62.43;100758.92;1751292;81;25502;-66
2022/06/18 05:52:29;;;;;;;5.90;4.10;;;;;;;19.65;62.39;100762.66;1772541;80;25625;-66
2022/06/18 05:54:57;;;;;;;5.20;4.65;;;;;;;19.80;61.55;100764.34;1739564;81;25649;-67
2022/06/18 05:57:23;;;;;;;6.22;4.28;;;;;;;19.91;61.44;100765.38;1688548;82;25569;-66
2022/06/18 05:59:50;;;;;;;3.98;3.60;;;;;;;20.08;60.81;100766.30;1724126;80;28187;-66
2022/06/18 06:02:19;;;;;;;5.83;4.15;;;;;;;20.16;60.13;100765.87;1724289;81;25807;-67
2022/06/18 06:04:46;;;;;;;;;;;;;;;20.29;59.72;100762.37;1722500;82;25598;-67
2022/06/18 06:07:23;;;;;;;5.28;3.10;;;;;;;20.43;59.03;100763.22;1752024;81;25867;-67
2022/06/18 06:12:35;;;;;;;6.85;3.40;;;;;;;20.69;58.83;100757.83;1709667;80;28001;-66
2022/06/18 06:15:01;;;;;;;3.35;2.90;;;;;;;20.88;57.92;100757.55;1736758;80;25619;-67
2022/06/18 06:17:28;;;;;;;4.75;2.95;;;;;;;20.99;56.56;100755.75;1757127;81;25737;-68
2022/06/18 06:20:15;;;;;;;4.35;3.08;;;;;;;21.09;56.52;100752.97;1744152;80;26356;-67
2022/06/18 06:22:40;;;;;;;3.10;2.80;;;;;;;21.24;56.62;100756.73;1737134;80;25455;-67
2022/06/18 06:25:07;;;;;;;3.90;3.50;;;;;;;21.45;55.79;100755.67;1741376;80;27968;-68
2022/06/18 06:27:33;;;;;;;6.45;3.50;;;;;;;21.59;55.82;100748.78;1709593;80;25736;-66
2022/06/18 06:29:59;;;;;;;4.37;2.77;;;;;;;21.77;55.66;100753.16;1709613;80;26265;-64
2022/06/18 06:32:25;;;;;;;4.78;3.00;;;;;;;21.99;56.03;100745.35;1709647;80;25795;-66
2022/06/18 06:34:52;;;;;;;4.47;3.20;;;;;;;22.25;54.65;100747.79;1765962;80;25737;-69
2022/06/18 06:37:17;;;;;;;5.75;2.95;;;;;;;22.39;54.05;100741.69;1770227;80;28108;-67
2022/06/18 06:39:43;;;;;;;5.72;2.85;;;;;;;22.53;52.95;100745.94;1757036;81;25463;-66
2022/06/18 06:42:10;;;;;;;4.90;2.90;;;;;;;22.59;52.13;100740.08;1744958;80;25648;-66
2022/06/18 06:44:36;;;;;;;5.47;3.42;;;;;;;22.62;52.58;100740.11;1703206;84;25724;-67
2022/06/18 06:47:03;;;;;;;3.60;3.30;;;;;;;22.75;52.23;100741.41;1740963;81;25494;-67
2022/06/18 06:49:29;;;;;;;5.47;2.70;;;;;;;22.88;52.16;100732.83;1755411;81;27602;-66
2022/06/18 06:51:55;;;;;;;8.20;2.72;;;;;;;23.10;52.03;100724.16;1754419;80;25641;-67
2022/06/18 06:54:22;;;;;;;3.30;2.67;;;;;;;23.27;50.57;100732.34;1754466;80;25622;-67
2022/06/18 06:59:22;;;;;;;4.40;2.92;;;;;;;23.31;49.21;100721.53;1600000;87;26304;-67
2022/06/18 07:01:48;;;;;;;6.20;3.08;;;;;;;23.34;49.71;100717.20;1641361;87;27568;-68
2022/06/18 07:04:15;;;;;;;6.58;2.90;;;;;;;23.46;48.83;100721.03;1649394;86;25831;-68
2022/06/18 07:06:42;;;;;;;3.37;2.75;;;;;;;23.42;48.72;100721.58;1622233;88;25687;-67
2022/06/18 07:09:09;;;;;;;4.17;2.72;;;;;;;23.44;49.05;100720.60;1641108;87;25756;-68
2022/06/18 07:11:41;;;;;;;5.55;3.33;;;;;;;23.43;47.85;100712.13;1620872;88;25757;-67
2022/06/18 07:14:08;;;;;;;4.65;3.30;;;;;;;23.41;48.43;100714.50;1621804;88;27934;-67
2022/06/18 07:16:34;;;;;;;4.08;2.70;;;;;;;23.47;48.41;100706.62;1640958;86;25809;-68
2022/06/18 07:19:00;;;;;;;5.83;2.70;;;;;;;23.64;48.74;100710.05;1623595;88;25848;-68
2022/06/18 07:21:28;;;;;;;5.45;2.62;;;;;;;23.80;48.57;100704.20;1635624;87;25893;-68
2022/06/18 07:23:55;;;;;;;3.08;2.58;;;;;;;23.88;47.57;100702.88;1643797;86;25775;-68
2022/06/18 07:26:22;;;;;;;2.95;2.58;;;;;;;23.93;47.49;100703.27;1640314;87;27303;-67
2022/06/18 07:28:49;;;;;;;4.25;2.65;;;;;;;24.06;47.81;100698.19;1640255;87;25875;-67
2022/06/18 07:31:23;;;;;;;4.62;2.83;;;;;;;24.27;47.84;100710.46;1637544;87;25879;-68
2022/06/18 07:33:51;;;;;;;4.83;2.80;;;;;;;24.45;47.19;100694.69;1640372;85;27859;-68
2022/06/18 07:36:21;;;;;;;4.35;2.50;;;;;;;24.56;46.19;100696.09;1662438;81;25802;-67
2022/06/18 07:38:47;;;;;;;4.95;2.42;;;;;;;24.64;45.93;100690.76;1748794;81;27335;-67
2022/06/18 07:41:17;;;;;;;3.35;2.40;;;;;;;24.74;46.63;100690.53;1768661;80;26346;-67
2022/06/18 07:43:58;;;;;;;3.08;2.22;;;;;;;25.02;46.36;100688.94;1768549;80;25739;-67
2022/06/18 07:46:25;;;;;;;7.62;2.90;;;;;;;25.11;44.68;100687.31;1728008;81;26338;-67
2022/06/18 07:48:51;;;;;;;2.58;2.37;;;;;;;25.29;45.88;100699.77;1738352;81;25686;-68
2022/06/18 07:51:17;;;;;;;4.95;2.47;;;;;;;25.49;45.19;100689.62;1701451;82;27418;-67
2022/06/18 07:53:43;;;;;;;3.42;2.20;;;;;;;25.68;44.54;100682.80;1753906;81;25609;-67
2022/06/18 07:56:15;;;;;;;2.87;2.05;;;;;;;25.68;44.04;100695.27;1752669;80;25556;-68
2022/06/18 07:58:42;;;;;;;2.20;1.92;;;;;;;25.68;44.44;100692.50;1729588;80;25664;-68
2022/06/18 08:01:08;;;;;;;3.40;2.35;;;;;;;25.68;43.69;100691.89;1761040;81;25647;-67
2022/06/18 08:03:35;;;;;;;4.12;2.20;;;;;;;25.65;43.57;100689.15;1748662;81;27429;-67
2022/06/18 08:06:03;;;;;;;6.03;2.50;;;;;;;25.58;41.41;100687.20;1736330;81;25664;-67
2022/06/18 08:08:29;;;;;;;3.77;1.90;;;;;;;25.58;42.93;100698.27;1736869;81;25658;-67
2022/06/18 08:10:56;;;;;;;5.95;2.40;;;;;;;25.62;43.16;100692.11;1703315;84;25788;-68
2022/06/18 08:13:22;;;;;;;4.33;1.92;;;;;;;25.82;43.37;100680.55;1753598;81;25308;-68
2022/06/18 08:15:49;;;;;;;3.45;2.12;;;;;;;25.95;42.78;100684.47;1760073;80;28084;-68
2022/06/18 08:18:15;;;;;;;3.47;2.37;;;;;;;25.87;42.76;100689.22;1745616;80;25656;-66
2022/06/18 08:20:43;;;;;;;5.40;2.45;;;;;;;25.90;42.27;100686.25;1736282;81;25698;-67
2022/06/18 08:23:10;;;;;;;4.05;2.42;;;;;;;25.90;43.01;100679.33;1735813;81;26304;-67
2022/06/18 08:25:39;;;;;;;7.42;2.40;;;;;;;26.08;43.05;100677.27;1709511;82;25661;-68
2022/06/18 08:28:08;;;;;;;2.60;2.20;;;;;;;26.27;43.19;100685.64;1718861;83;28104;-67
2022/06/18 08:30:35;;;;;;;5.40;2.45;;;;;;;26.50;43.25;100684.27;1731514;80;34252;-68
2022/06/18 08:33:01;;;;;;;4.05;2.72;;;;;;;26.69;42.97;100689.88;1756343;80;25593;-67
2022/06/18 08:35:28;;;;;;;2.17;1.98;;;;;;;26.81;42.16;100686.58;1745577;80;25640;-67
2022/06/18 08:37:54;;;;;;;2.70;2.12;;;;;;;26.91;41.03;100686.91;1709941;82;25738;-66
2022/06/18 08:40:45;;;;;;;5.25;2.30;;;;;;;26.90;39.34;100690.87;1766854;80;27373;-67
2022/06/18 08:43:41;;;;;;;2.95;1.67;;;;;;;26.75;40.27;100688.24;1739144;82;25762;-67
2022/06/18 08:46:19;;;;;;;2.20;1.87;;;;;;;26.76;40.18;100682.87;1778068;80;25696;-67
2022/06/18 08:49:09;;;;;;;2.85;2.22;;;;;;;26.64;39.51;100672.28;1734536;82;25720;-64
2022/06/18 08:52:13;;;;;;;3.10;2.00;;;;;;;26.61;39.35;100675.84;1734837;82;26371;-65
2022/06/18 08:55:06;;;;;;;5.17;2.27;;;;;;;26.49;39.01;100679.12;1757255;81;27522;-65
2022/06/18 08:57:46;;;;;;;4.53;2.05;;;;;;;26.17;38.56;100670.45;1741782;81;25872;-64
2022/06/18 09:00:21;;;;;;;4.97;2.40;;;;;;;26.01;38.93;100677.28;1731595;81;25697;-64
2022/06/18 09:02:59;;;;;;;2.98;2.10;;;;;;;25.90;38.93;100675.17;1746908;81;25715;-66
2022/06/18 09:05:49;;;;;;;2.95;2.37;;;;;;;25.78;39.31;100671.45;1712629;82;25667;-67
2022/06/18 09:08:39;;;;;;;4.75;2.25;;;;;;;25.74;39.78;100671.48;1749214;81;27413;-65
2022/06/18 09:11:22;;;;;;;4.15;2.62;;;;;;;25.81;39.79;100657.61;1725384;80;25619;-65
2022/06/18 09:14:30;;;;;;;3.35;2.42;;;;;;;25.82;39.44;100651.47;1719392;82;25676;-64
2022/06/18 09:17:17;;;;;;;3.10;2.22;;;;;;;25.78;39.24;100648.72;1730127;81;25696;-63
2022/06/18 09:19:47;;;;;;;8.90;2.85;;;;;;;25.63;38.55;100656.91;1709448;81;25728;-64
2022/06/18 09:22:18;;;;;;;2.70;2.47;;;;;;;25.43;38.78;100659.38;1729007;81;27506;-64
2022/06/18 09:24:48;;;;;;;5.95;2.62;;;;;;;25.35;39.24;100652.49;1720218;81;25963;-66
2022/06/18 09:27:33;;;;;;;3.10;2.30;;;;;;;25.37;39.11;100652.09;1708904;81;25830;-67
2022/06/18 09:30:06;;;;;;;4.70;2.27;;;;;;;25.32;38.80;100649.13;1729566;81;25640;-64
2022/06/18 09:33:11;;;;;;;4.03;2.10;;;;;;;25.25;38.49;100652.48;1761225;81;26228;-65
2022/06/18 09:35:46;;;;;;;3.77;2.33;;;;;;;25.22;38.93;100649.94;1647198;85;28112;-66
2022/06/18 09:38:36;;;;;;;2.10;1.98;;;;;;;25.23;38.39;100645.96;1651869;86;25679;-65
2022/06/18 09:41:16;;;;;;;2.52;2.27;;;;;;;25.38;39.33;100644.56;1681129;84;25728;-65
2022/06/18 09:44:10;;;;;;;2.83;1.65;;;;;;;25.66;39.01;100644.43;1686397;84;26383;-68
2022/06/18 09:46:56;;;;;;;2.58;2.37;;;;;;;25.83;38.01;100638.59;1677120;84;26015;-67
2022/06/18 09:49:22;;;;;;;7.87;2.40;;;;;;;25.84;37.98;100626.91;1686310;84;27943;-65
2022/06/18 09:52:06;;;;;;;2.20;2.00;;;;;;;25.83;37.90;100617.81;1686813;84;25437;-65
2022/06/18 09:54:29;;;;;;;2.37;2.08;;;;;;;25.83;38.06;100613.66;1661759;84;25769;-65
2022/06/18 09:57:00;;;;;;;2.40;2.10;;;;;;;26.01;38.46;100611.38;1659400;85;25802;-65
2022/06/18 09:59:34;;;;;;;6.05;3.75;;;;;;;26.17;37.90;100610.28;1656260;85;25672;-65
2022/06/18 10:02:01;;;;;;;3.08;2.25;;;;;;;26.16;37.48;100611.46;1623839;87;27377;-65
2022/06/18 10:07:26;;;;;;;4.67;2.45;;;;;;;26.26;37.68;100600.88;1625587;87;25736;-66
2022/06/18 10:10:04;;;;;;;2.33;2.02;;;;;;;26.35;37.03;100602.39;1627038;87;25791;-66
2022/06/18 10:12:38;;;;;;;2.40;2.12;;;;;;;26.35;36.60;100601.02;1659824;82;25718;-66
2022/06/18 10:15:09;;;;;;;4.20;2.20;;;;;;;26.56;37.28;100602.20;1736481;81;27492;-66
2022/06/18 10:17:50;;;;;;;3.35;2.47;;;;;;;27.11;37.68;100596.87;1730597;82;25712;-66
2022/06/18 10:20:39;;;;;;;5.95;2.33;;;;;;;27.53;35.89;100587.80;1715848;81;25742;-67
2022/06/18 10:23:19;;;;;;;3.12;2.50;;;;;;;27.55;35.25;100588.97;1741192;81;26711;-67
2022/06/18 10:26:14;;;;;;;5.15;2.30;;;;;;;27.72;35.72;100578.00;1713659;81;25437;-67
2022/06/18 10:28:48;;;;;;;3.05;2.47;;;;;;;28.08;34.87;100578.88;1732965;81;27507;-67
2022/06/18 10:31:32;;;;;;;6.42;2.27;;;;;;;28.38;34.74;100566.03;1725230;82;25690;-68
2022/06/18 10:34:38;;;;;;;4.35;1.98;;;;;;;28.67;34.47;100570.48;1719416;81;25711;-67
2022/06/18 10:37:40;;;;;;;6.00;2.35;;;;;;;28.92;35.04;100563.03;1741323;81;25764;-66
2022/06/18 10:40:37;;;;;;;2.20;2.00;;;;;;;29.74;35.24;100557.65;1646583;85;25561;-67
2022/06/18 10:43:28;;;;;;;5.12;2.27;;;;;;;30.32;32.25;100566.00;1645617;84;27512;-64
2022/06/18 10:46:08;;;;;;;2.50;2.30;;;;;;;30.16;31.34;100565.43;1665219;86;25775;-71
2022/06/18 10:48:35;;;;;;;5.45;2.22;;;;;;;29.76;31.22;100548.30;1667226;86;25848;-66
2022/06/18 10:51:03;;;;;;;5.62;2.40;;;;;;;29.29;32.26;100551.34;1667467;86;25878;-69
2022/06/18 10:53:37;;;;;;;3.13;1.80;;;;;;;28.98;32.13;100560.52;1667842;86;25804;-69
2022/06/18 10:56:09;;;;;;;3.42;1.90;;;;;;;28.56;32.67;100558.79;1665813;86;27332;-67
2022/06/18 10:58:50;;;;;;;2.33;1.98;;;;;;;28.28;33.49;100545.53;1666221;86;25849;-69
2022/06/18 11:01:28;;;;;;;3.22;2.12;;;;;;;28.27;34.21;100543.98;1667144;86;25418;-67
2022/06/18 11:03:58;;;;;;;3.67;2.20;;;;;;;28.18;34.32;100546.52;1667467;86;25794;-68
2022/06/18 11:06:25;;;;;;;4.35;2.47;;;;;;;27.87;33.65;100550.78;1667453;86;25819;-67
2022/06/18 11:09:01;;;;;;;3.95;2.05;;;;;;;27.48;33.93;100545.22;1667306;86;28294;-68
2022/06/18 11:11:32;;;;;;;2.22;2.02;;;;;;;27.24;34.19;100546.52;1667595;86;25832;-68
2022/06/18 11:14:18;;;;;;;2.55;2.22;;;;;;;27.15;34.30;100556.74;1656108;84;25741;-68
2022/06/18 11:16:47;;;;;;;2.83;2.47;;;;;;;26.93;34.28;100542.97;1673833;81;25925;-68
2022/06/18 11:19:29;;;;;;;3.00;2.40;;;;;;;26.69;35.30;100544.23;1726170;83;25742;-67
2022/06/18 11:22:17;;;;;;;7.28;2.52;;;;;;;26.50;35.44;100533.73;1725832;83;27346;-66
2022/06/18 11:24:44;;;;;;;3.60;2.30;;;;;;;26.55;35.80;100536.83;1726581;82;26346;-66
2022/06/18 11:27:15;;;;;;;4.12;2.60;;;;;;;26.60;35.66;100528.05;1726723;83;25780;-66
2022/06/18 11:29:49;;;;;;;4.85;2.10;;;;;;;26.71;36.01;100528.56;1726588;83;25553;-66
2022/06/18 11:32:38;;;;;;;2.65;2.12;;;;;;;26.77;35.37;100527.69;1742491;82;25818;-66
2022/06/18 11:35:22;;;;;;;3.12;1.82;;;;;;;26.73;35.65;100518.64;1725297;82;27330;-66
2022/06/18 11:37:59;;;;;;;3.83;1.80;;;;;;;26.76;35.58;100516.39;1698120;83;27304;-65
2022/06/18 11:40:27;;;;;;;4.05;1.90;;;;;;;26.87;35.43;100523.80;1727951;82;25726;-65
2022/06/18 11:43:20;;;;;;;7.17;2.02;;;;;;;26.89;35.54;100516.64;1750835;81;25853;-66
2022/06/18 11:45:55;;;;;;;4.47;1.92;;;;;;;27.08;35.44;100512.44;1722838;81;26399;-66
2022/06/18 11:48:40;;;;;;;6.15;2.27;;;;;;;27.31;35.63;100502.63;1704008;81;28128;-66
2022/06/18 11:51:18;;;;;;;2.27;2.08;;;;;;;27.55;35.29;100504.86;1717138;81;26331;-65
2022/06/18 11:54:19;;;;;;;3.80;2.12;;;;;;;27.62;34.78;100503.94;1742467;80;25735;-65
2022/06/18 11:56:54;;;;;;;4.35;2.17;;;;;;;27.68;34.49;100500.26;1737168;81;25821;-65
2022/06/18 11:59:46;;;;;;;4.25;2.25;;;;;;;27.70;34.33;100490.11;1746567;80;26197;-66